Time;durP1;ratioP1;P1;durP2;ratioP2;P2;SDS_P1;SDS_P2;PMS_P1;PMS_P2;Temp;Humidity;BMP_temperature;BMP_pressure;BME280_temperature;BME280_humidity;BME280_pressure;Samples;Min_cycle;Max_cycle;Signal;HPM_P1;HPM_P2
2022/01/16 00:01:01;;;;;;;89.13;44.70;;;;;;;-0.85;100.00;102346.44;5091120;28;20115;-64
2022/01/16 00:06:10;;;;;;;90.67;42.93;;;;;;;-1.00;100.00;102363.56;5103433;28;20506;-64
2022/01/16 00:08:35;;;;;;;95.67;44.57;;;;;;;-1.01;100.00;102349.94;5110003;28;20023;-64
2022/01/16 00:11:01;;;;;;;96.57;44.87;;;;;;;-1.05;100.00;102363.09;5109836;28;20498;-65
2022/01/16 00:13:26;;;;;;;93.23;44.13;;;;;;;-1.03;100.00;102361.63;5110241;28;20031;-64
2022/01/16 00:15:51;;;;;;;94.40;45.30;;;;;;;-0.99;100.00;102371.34;5091451;28;20015;-64
2022/01/16 00:18:23;;;;;;;91.97;43.53;;;;;;;-1.01;100.00;102385.56;5092819;28;20028;-64
2022/01/16 00:20:48;;;;;;;;;;;;;;;-1.03;100.00;102370.91;5091226;28;20012;-63
2022/01/16 00:23:22;;;;;;;90.07;42.30;;;;;;;-1.03;100.00;102371.81;5107207;28;20064;-66
2022/01/16 00:25:48;;;;;;;89.17;43.07;;;;;;;-1.00;100.00;102374.66;5109336;28;20468;-64
2022/01/16 00:28:14;;;;;;;85.33;42.87;;;;;;;-0.97;100.00;102357.16;5109390;28;20057;-64
2022/01/16 00:30:39;;;;;;;86.27;43.40;;;;;;;-0.97;100.00;102341.88;5109406;28;20274;-64
2022/01/16 00:33:04;;;;;;;89.87;44.77;;;;;;;-0.94;100.00;102340.41;5109362;28;20023;-64
2022/01/16 00:35:30;;;;;;;92.83;43.20;;;;;;;-0.92;100.00;102354.19;5092547;28;20023;-64
2022/01/16 00:37:55;;;;;;;92.93;43.97;;;;;;;-0.91;100.00;102358.53;5089943;28;20028;-65
2022/01/16 00:40:20;;;;;;;87.83;43.03;;;;;;;-0.91;100.00;102349.25;5089817;28;20537;-64
2022/01/16 00:42:46;;;;;;;91.13;43.23;;;;;;;-0.89;100.00;102354.50;5090047;28;20047;-64
2022/01/16 00:45:11;;;;;;;94.70;45.00;;;;;;;-0.89;100.00;102350.31;5089789;28;20032;-64
2022/01/16 00:47:36;;;;;;;93.13;43.93;;;;;;;-0.87;100.00;102346.28;5095502;28;20150;-64
2022/01/16 00:50:03;;;;;;;95.17;44.07;;;;;;;-0.88;100.00;102336.84;5094645;28;20019;-64
2022/01/16 00:52:28;;;;;;;96.40;45.37;;;;;;;-0.87;100.00;102351.38;5089764;28;20077;-64
2022/01/16 00:54:55;;;;;;;95.23;44.83;;;;;;;-0.87;100.00;102368.28;5089537;28;20484;-64
2022/01/16 00:57:20;;;;;;;93.97;43.53;;;;;;;-0.87;100.00;102342.84;5089904;28;20413;-64
2022/01/16 00:59:45;;;;;;;93.00;44.50;;;;;;;-0.88;100.00;102315.59;5089715;28;20027;-64
2022/01/16 01:02:11;;;;;;;91.17;43.73;;;;;;;-0.90;100.00;102300.13;5089703;28;20043;-65
2022/01/16 01:04:36;;;;;;;84.80;42.13;;;;;;;-0.90;100.00;102309.44;5089602;28;20057;-64
2022/01/16 01:07:02;;;;;;;95.00;44.10;;;;;;;-0.91;100.00;102320.34;5089635;28;20052;-65
2022/01/16 01:09:27;;;;;;;96.60;44.23;;;;;;;-0.91;100.00;102315.25;5108493;28;20098;-63
2022/01/16 01:11:52;;;;;;;95.27;44.93;;;;;;;-0.88;100.00;102338.50;5108994;28;20051;-64
2022/01/16 01:14:40;;;;;;;98.80;46.13;;;;;;;-0.86;100.00;102331.91;5109050;28;20016;-64
2022/01/16 01:17:07;;;;;;;100.37;45.67;;;;;;;-0.83;100.00;102333.88;5105716;28;20027;-65
2022/01/16 01:19:34;;;;;;;104.70;48.43;;;;;;;-0.81;100.00;102323.06;5089628;28;20495;-64
2022/01/16 01:22:04;;;;;;;100.23;46.87;;;;;;;-0.80;100.00;102324.91;5089590;28;20021;-64
2022/01/16 01:24:31;;;;;;;106.63;48.80;;;;;;;-0.79;100.00;102301.22;5089704;28;20059;-64
2022/01/16 01:29:23;;;;;;;105.57;48.33;;;;;;;-0.76;100.00;102321.03;5089818;28;20527;-65
2022/01/16 01:31:51;;;;;;;120.33;48.97;;;;;;;-0.76;100.00;102321.03;5089809;28;20016;-64
2022/01/16 01:34:17;;;;;;;113.57;49.43;;;;;;;-0.74;100.00;102319.53;5089493;28;20286;-64
2022/01/16 01:36:47;;;;;;;125.77;50.70;;;;;;;-0.75;100.00;102288.06;5089335;28;20022;-64
2022/01/16 01:39:13;;;;;;;122.35;51.88;;;;;;;-0.78;100.00;102241.94;5089261;28;20028;-64
2022/01/16 01:41:38;;;;;;;128.47;51.93;;;;;;;-0.76;100.00;102240.44;5089536;28;20574;-64
2022/01/16 01:52:16;;;;;;;133.90;54.07;;;;;;;-0.72;100.00;102277.31;5109453;28;20104;-64
2022/01/16 01:54:42;;;;;;;139.97;56.23;;;;;;;-0.70;100.00;102296.16;5108751;28;20027;-64
2022/01/16 01:57:07;;;;;;;135.13;57.57;;;;;;;-0.71;100.00;102294.38;5108153;28;20023;-64
2022/01/16 01:59:32;;;;;;;137.17;57.83;;;;;;;-0.70;100.00;102305.47;5101761;28;20084;-64
2022/01/16 02:01:58;;;;;;;158.47;59.70;;;;;;;-0.70;100.00;102302.94;5108921;28;20482;-64
2022/01/16 02:04:23;;;;;;;136.13;58.20;;;;;;;-0.71;100.00;102314.75;5112268;28;20028;-64
2022/01/16 02:06:49;;;;;;;127.23;60.13;;;;;;;-0.71;100.00;102319.84;5112015;28;20047;-64
2022/01/16 02:09:14;;;;;;;139.00;59.27;;;;;;;-0.73;100.00;102334.97;5094370;28;20036;-63
2022/01/16 02:11:40;;;;;;;135.37;59.53;;;;;;;-0.73;100.00;102327.31;5098570;28;20391;-63
2022/01/16 02:28:01;;;;;;;158.60;53.53;;;;;;;-0.85;100.00;102338.81;5092668;28;20313;-62
2022/01/16 02:35:43;;;;;;;147.10;54.83;;;;;;;-0.95;100.00;102353.88;5092643;28;20237;-62
2022/01/16 02:38:09;;;;;;;119.13;52.23;;;;;;;-1.01;100.00;102352.47;5097623;28;20024;-63
2022/01/16 02:40:37;;;;;;;174.67;59.90;;;;;;;-1.05;100.00;102350.38;5110652;28;20039;-64
2022/01/16 02:43:03;;;;;;;143.17;54.80;;;;;;;-1.10;100.00;102341.38;5111659;28;20102;-64
2022/01/16 02:45:30;;;;;;;122.37;54.47;;;;;;;-1.13;100.00;102341.03;5111710;28;20110;-64
2022/01/16 02:47:58;;;;;;;134.70;52.60;;;;;;;-1.18;100.00;102338.00;5106839;28;20027;-64
2022/01/16 02:50:24;;;;;;;123.50;52.53;;;;;;;-1.17;100.00;102321.13;5075291;28;20039;-64
2022/01/16 02:52:50;;;;;;;130.53;55.33;;;;;;;-1.17;100.00;102324.53;5091950;28;20055;-65
2022/01/16 02:55:19;;;;;;;130.27;55.83;;;;;;;-1.17;100.00;102318.56;5091954;28;20088;-64
2022/01/16 02:57:45;;;;;;;116.03;53.47;;;;;;;-1.16;100.00;102312.72;5091918;28;20327;-64
2022/01/16 03:00:11;;;;;;;120.23;55.10;;;;;;;-1.16;100.00;102307.63;5091892;28;20028;-63
2022/01/16 03:02:36;;;;;;;140.10;55.93;;;;;;;-1.16;100.00;102297.47;5091751;28;20373;-64
2022/01/16 03:05:02;;;;;;;131.23;55.20;;;;;;;-1.17;100.00;102290.59;5091692;28;20043;-64
2022/01/16 03:07:27;;;;;;;139.00;55.80;;;;;;;-1.16;100.00;102294.91;5095351;28;20139;-64
2022/01/16 03:12:50;;;;;;;136.00;57.30;;;;;;;-1.16;100.00;102279.66;5105403;28;20031;-65
2022/01/16 03:15:16;;;;;;;129.37;58.63;;;;;;;-1.15;100.00;102278.91;5105151;28;20015;-65
2022/01/16 03:23:12;;;;;;;147.67;59.67;;;;;;;-1.13;100.00;102277.41;5091349;28;20278;-64
2022/01/16 03:25:37;;;;;;;133.27;58.87;;;;;;;-1.09;100.00;102274.44;5091219;28;20024;-65
2022/01/16 03:28:03;;;;;;;136.10;59.37;;;;;;;-1.09;100.00;102271.91;5093535;28;20270;-64
2022/01/16 03:30:29;;;;;;;140.77;61.50;;;;;;;-1.04;100.00;102268.19;5085569;28;20019;-64
2022/01/16 03:32:54;;;;;;;149.00;61.73;;;;;;;-1.03;100.00;102267.44;5110866;28;20128;-65
2022/01/16 03:35:20;;;;;;;156.77;60.50;;;;;;;-1.03;100.00;102270.00;5110782;28;20019;-64
2022/01/16 03:37:45;;;;;;;147.13;61.37;;;;;;;-1.02;100.00;102271.78;5106687;28;20032;-64
2022/01/16 03:40:11;;;;;;;139.03;60.10;;;;;;;-1.02;100.00;102265.78;5090719;28;20039;-64
2022/01/16 03:42:38;;;;;;;149.07;62.77;;;;;;;-0.99;100.00;102268.66;5090980;28;20085;-64
2022/01/16 03:45:05;;;;;;;149.67;62.73;;;;;;;-0.95;100.00;102272.44;5091196;28;20024;-64
2022/01/16 03:47:31;;;;;;;139.97;63.63;;;;;;;-0.95;100.00;102255.50;5090733;28;20067;-64
2022/01/16 03:49:57;;;;;;;145.93;63.63;;;;;;;-0.95;100.00;102262.25;5090743;28;20119;-64
2022/01/16 03:52:22;;;;;;;143.03;61.07;;;;;;;-0.92;100.00;102275.28;5090910;28;20107;-64
2022/01/16 03:54:47;;;;;;;152.20;66.13;;;;;;;-0.90;100.00;102269.56;5090489;28;20020;-64
2022/01/16 03:57:13;;;;;;;145.87;63.33;;;;;;;-0.87;100.00;102272.47;5090727;28;20024;-64
2022/01/16 03:59:39;;;;;;;140.03;65.20;;;;;;;-0.84;100.00;102276.94;5090768;28;20028;-64
2022/01/16 04:02:05;;;;;;;141.50;63.93;;;;;;;-0.82;100.00;102264.38;5096615;28;20028;-64
2022/01/16 04:04:30;;;;;;;147.10;65.33;;;;;;;-0.81;100.00;102269.59;5090416;28;20419;-64
2022/01/16 04:06:56;;;;;;;141.40;63.87;;;;;;;-0.82;100.00;102265.28;5109701;28;20067;-64
2022/01/16 04:09:22;;;;;;;152.93;65.73;;;;;;;-0.79;100.00;102277.44;5093689;28;20097;-64
2022/01/16 04:11:56;;;;;;;132.53;64.13;;;;;;;-0.78;100.00;102272.50;5090325;28;20028;-64
2022/01/16 04:17:06;;;;;;;152.10;64.70;;;;;;;-0.73;100.00;102271.31;5090685;28;20085;-64
2022/01/16 04:19:31;;;;;;;141.40;67.70;;;;;;;-0.72;100.00;102264.56;5090436;28;20479;-64
2022/01/16 04:21:56;;;;;;;144.40;67.30;;;;;;;-0.69;100.00;102264.88;5090530;28;20059;-64
2022/01/16 04:24:22;;;;;;;133.77;66.17;;;;;;;-0.66;100.00;102257.53;5089995;28;20024;-64
2022/01/16 04:26:47;;;;;;;135.67;64.73;;;;;;;-0.62;100.00;102261.28;5089939;28;20020;-64
2022/01/16 04:29:12;;;;;;;134.93;67.83;;;;;;;-0.59;100.00;102264.16;5090501;28;20058;-64
2022/01/16 04:31:38;;;;;;;133.47;65.87;;;;;;;-0.56;100.00;102264.47;5093022;28;20441;-64
2022/01/16 04:34:03;;;;;;;135.00;67.60;;;;;;;-0.54;100.00;102259.53;5090090;28;20030;-64
2022/01/16 04:36:28;;;;;;;140.60;72.00;;;;;;;-0.52;100.00;102258.91;5091737;28;20028;-64
2022/01/16 04:38:54;;;;;;;138.20;69.83;;;;;;;-0.49;100.00;102263.44;5090582;28;20484;-64
2022/01/16 04:44:04;;;;;;;128.40;69.53;;;;;;;-0.44;100.00;102258.78;5097193;28;20514;-64
2022/01/16 04:46:32;;;;;;;123.50;67.57;;;;;;;-0.44;100.00;102258.78;5109551;28;20016;-64
2022/01/16 04:48:59;;;;;;;131.37;69.83;;;;;;;-0.42;100.00;102249.66;5109391;28;20231;-64
2022/01/16 04:51:26;;;;;;;126.13;68.60;;;;;;;-0.41;100.00;102246.34;5109435;28;20515;-64
2022/01/16 04:53:52;;;;;;;130.50;68.93;;;;;;;-0.40;100.00;102248.16;5104031;28;20205;-64
2022/01/16 04:56:17;;;;;;;122.03;67.33;;;;;;;-0.38;100.00;102249.22;5109417;28;20027;-64
2022/01/16 04:58:43;;;;;;;120.60;68.57;;;;;;;-0.37;100.00;102246.81;5109314;28;20080;-64
2022/01/16 05:01:09;;;;;;;130.87;69.53;;;;;;;-0.34;100.00;102240.25;5089674;28;20107;-65
2022/01/16 05:03:36;;;;;;;119.70;68.67;;;;;;;-0.34;100.00;102240.25;5089629;28;20046;-65
2022/01/16 05:06:03;;;;;;;122.50;67.93;;;;;;;-0.32;100.00;102247.25;5089649;28;20048;-65
2022/01/16 05:08:28;;;;;;;127.07;68.93;;;;;;;-0.30;100.00;102232.13;5100272;28;20102;-64
2022/01/16 05:10:56;;;;;;;123.17;69.87;;;;;;;-0.29;100.00;102233.94;5091631;28;20560;-64
2022/01/16 05:18:46;;;;;;;124.47;71.03;;;;;;;-0.22;100.00;102235.44;5109257;28;20050;-64
2022/01/16 05:21:12;;;;;;;119.67;68.87;;;;;;;-0.20;100.00;102231.41;5109024;28;20402;-64
2022/01/16 05:23:38;;;;;;;120.10;68.73;;;;;;;-0.19;100.00;102230.63;5109043;28;20069;-64
2022/01/16 05:26:04;;;;;;;124.10;69.53;;;;;;;-0.19;100.00;102230.63;5108971;28;20433;-64
2022/01/16 05:28:30;;;;;;;116.53;69.00;;;;;;;-0.15;100.00;102228.56;5099946;28;20107;-65
2022/01/16 05:30:56;;;;;;;121.00;69.27;;;;;;;-0.16;100.00;102230.94;5089503;28;20110;-64
2022/01/16 05:33:21;;;;;;;119.03;69.10;;;;;;;-0.16;100.00;102225.84;5089568;28;20024;-64
2022/01/16 05:35:47;;;;;;;113.37;67.30;;;;;;;-0.14;100.00;102234.53;5097100;28;20023;-64
2022/01/16 05:38:12;;;;;;;121.87;69.83;;;;;;;-0.13;100.00;102236.34;5097200;28;20065;-64
2022/01/16 05:40:39;;;;;;;118.10;69.57;;;;;;;-0.11;100.00;102239.94;5074908;28;20102;-64
2022/01/16 05:43:05;;;;;;;118.13;70.30;;;;;;;-0.11;100.00;102229.75;5093588;28;20475;-65
2022/01/16 05:45:32;;;;;;;120.80;69.67;;;;;;;-0.08;100.00;102236.78;5093199;28;20031;-64
2022/01/16 05:47:57;;;;;;;116.60;69.90;;;;;;;-0.08;100.00;102245.34;5088226;28;20019;-64
2022/01/16 05:50:23;;;;;;;120.47;70.30;;;;;;;-0.04;100.00;102249.09;5094581;28;20031;-64
2022/01/16 05:52:49;;;;;;;122.00;73.53;;;;;;;-0.03;100.00;102253.44;5107774;28;20019;-64
2022/01/16 05:55:14;;;;;;;133.07;75.20;;;;;;;-0.01;100.00;102257.94;5112787;28;20027;-64
2022/01/16 05:57:40;;;;;;;121.97;73.37;;;;;;;0.05;100.00;102256.75;5112630;28;20027;-65
2022/01/16 06:00:08;;;;;;;124.67;73.03;;;;;;;0.07;100.00;102239.94;5110616;28;20023;-64
2022/01/16 06:02:33;;;;;;;124.30;72.50;;;;;;;0.08;100.00;102242.66;5111224;28;20028;-64
2022/01/16 06:04:59;;;;;;;120.93;74.53;;;;;;;0.09;100.00;102246.97;5112562;28;20035;-65
2022/01/16 06:07:24;;;;;;;132.60;75.33;;;;;;;0.11;100.00;102236.91;5101275;28;20661;-64
2022/01/16 06:09:51;;;;;;;120.70;72.87;;;;;;;0.15;100.00;102239.03;5093127;28;20016;-64
2022/01/16 06:12:17;;;;;;;130.20;75.03;;;;;;;0.19;100.00;102236.03;5074605;28;20047;-64
2022/01/16 06:14:42;;;;;;;131.97;76.53;;;;;;;0.24;100.00;102244.13;5092951;28;20545;-64
2022/01/16 06:17:07;;;;;;;126.10;74.97;;;;;;;0.26;100.00;102236.63;5092864;28;20020;-64
2022/01/16 06:19:33;;;;;;;131.20;75.80;;;;;;;0.26;100.00;102242.63;5092915;28;20024;-65
2022/01/16 06:21:59;;;;;;;125.93;75.63;;;;;;;0.30;100.00;102247.28;5093268;28;20031;-64
2022/01/16 06:24:24;;;;;;;131.83;74.00;;;;;;;0.33;100.00;102234.81;5074157;28;20031;-64
2022/01/16 06:26:49;;;;;;;129.97;74.87;;;;;;;0.35;100.00;102252.81;5092262;28;20023;-63
2022/01/16 06:29:16;;;;;;;126.10;75.60;;;;;;;0.38;100.00;102248.00;5092379;28;20020;-62
2022/01/16 06:31:41;;;;;;;127.87;76.23;;;;;;;0.39;100.00;102249.81;5092507;28;20020;-62
2022/01/16 06:34:07;;;;;;;129.87;77.87;;;;;;;0.41;100.00;102243.22;5092364;28;20085;-64
2022/01/16 06:36:34;;;;;;;128.37;75.57;;;;;;;0.42;100.00;102260.31;5079191;28;20015;-64
2022/01/16 06:39:00;;;;;;;130.87;75.37;;;;;;;0.45;100.00;102270.78;5092058;28;20045;-64
2022/01/16 06:41:26;;;;;;;127.43;73.73;;;;;;;0.50;100.00;102276.38;5091808;28;20020;-64
2022/01/16 06:43:51;;;;;;;129.37;75.20;;;;;;;0.53;100.00;102278.28;5092133;28;20035;-64
2022/01/16 06:46:17;;;;;;;122.50;73.63;;;;;;;0.53;100.00;102279.19;5091910;28;20039;-64
2022/01/16 06:48:42;;;;;;;134.23;77.43;;;;;;;0.55;100.00;102272.59;5091984;28;20534;-64
2022/01/16 06:51:08;;;;;;;129.90;75.50;;;;;;;0.57;100.00;102280.41;5094918;28;20055;-64
2022/01/16 06:53:34;;;;;;;130.30;75.50;;;;;;;0.60;100.00;102280.69;5086685;28;20089;-65
2022/01/16 06:56:00;;;;;;;129.37;72.80;;;;;;;0.65;100.00;102288.78;5093105;28;20027;-64
2022/01/16 06:58:25;;;;;;;120.83;72.80;;;;;;;0.65;100.00;102284.56;5111447;28;20360;-65
2022/01/16 07:00:51;;;;;;;124.23;73.83;;;;;;;0.67;100.00;102288.16;5111434;28;20027;-64
2022/01/16 07:03:16;;;;;;;121.17;73.43;;;;;;;0.69;100.00;102291.78;5104404;28;20065;-64
2022/01/16 07:05:42;;;;;;;116.37;71.13;;;;;;;0.70;100.00;102291.00;5111018;28;20093;-64
2022/01/16 07:08:08;;;;;;;112.93;70.57;;;;;;;0.75;100.00;102290.56;5111185;28;20063;-65
2022/01/16 07:10:33;;;;;;;112.60;69.80;;;;;;;0.75;100.00;102285.44;5110769;28;20023;-64
2022/01/16 07:12:59;;;;;;;114.10;70.47;;;;;;;0.77;100.00;102294.16;5110859;28;20110;-64
2022/01/16 07:15:25;;;;;;;114.87;69.67;;;;;;;0.77;100.00;102299.25;5111145;28;20424;-64
2022/01/16 07:17:50;;;;;;;109.43;69.77;;;;;;;0.80;100.00;102314.88;5111471;28;20375;-64
2022/01/16 07:20:16;;;;;;;110.80;67.70;;;;;;;0.81;100.00;102322.66;5108738;28;20024;-64
2022/01/16 07:22:43;;;;;;;110.60;67.53;;;;;;;0.83;100.00;102321.16;5091089;28;20091;-65
2022/01/16 07:25:09;;;;;;;107.90;66.83;;;;;;;0.85;100.00;102323.84;5091491;28;20028;-65
2022/01/16 07:27:34;;;;;;;106.80;64.97;;;;;;;0.87;100.00;102329.09;5106431;28;20530;-65
2022/01/16 07:29:59;;;;;;;111.67;67.13;;;;;;;0.91;100.00;102336.31;5110674;28;20046;-64
2022/01/16 07:32:25;;;;;;;107.10;64.33;;;;;;;0.93;100.00;102338.28;5098820;28;20493;-65
2022/01/16 07:34:50;;;;;;;103.17;59.83;;;;;;;0.97;100.00;102333.47;5091173;28;20049;-65
2022/01/16 07:37:15;;;;;;;100.30;61.47;;;;;;;0.98;100.00;102350.56;5090875;28;20032;-66
2022/01/16 07:39:41;;;;;;;93.93;59.43;;;;;;;1.00;100.00;102359.28;5091033;28;20032;-64
2022/01/16 07:42:07;;;;;;;94.70;57.17;;;;;;;1.02;100.00;102365.44;5090400;28;20154;-65
2022/01/16 07:44:32;;;;;;;96.23;57.87;;;;;;;1.02;100.00;102342.44;5090938;28;20473;-65
2022/01/16 07:46:57;;;;;;;96.40;59.60;;;;;;;1.04;100.00;102346.06;5090756;28;20107;-64
2022/01/16 07:49:23;;;;;;;96.23;60.17;;;;;;;1.05;100.00;102355.50;5090880;28;20353;-64
2022/01/16 07:51:48;;;;;;;89.37;56.53;;;;;;;1.08;100.00;102356.69;5091995;28;20028;-64
2022/01/16 07:54:14;;;;;;;89.47;56.93;;;;;;;1.11;100.00;102358.66;5099112;28;20479;-64
2022/01/16 07:56:39;;;;;;;86.17;56.03;;;;;;;1.13;100.00;102375.03;5109928;28;20015;-64
2022/01/16 07:59:04;;;;;;;90.20;55.90;;;;;;;1.15;100.00;102376.03;5110253;28;20158;-64
2022/01/16 08:01:30;;;;;;;83.87;54.97;;;;;;;1.18;100.00;102388.22;5101278;28;20023;-64
2022/01/16 08:03:55;;;;;;;85.80;55.17;;;;;;;1.24;100.00;102385.34;5089423;28;20065;-65
2022/01/16 08:06:20;;;;;;;84.67;53.23;;;;;;;1.25;100.00;102388.06;5090253;28;20063;-64
2022/01/16 08:08:46;;;;;;;84.87;52.77;;;;;;;1.30;100.00;102380.81;5090530;28;20388;-64
2022/01/16 08:11:11;;;;;;;81.93;52.53;;;;;;;1.33;100.00;102383.69;5090308;28;20035;-65
2022/01/16 08:13:37;;;;;;;82.70;53.63;;;;;;;1.36;100.00;102380.50;5090484;28;20046;-65
2022/01/16 08:16:04;;;;;;;79.37;52.27;;;;;;;1.38;100.00;102376.44;5090203;28;20529;-65
2022/01/16 08:18:29;;;;;;;87.40;52.37;;;;;;;1.43;100.00;102372.66;5091820;28;20023;-64
2022/01/16 08:20:54;;;;;;;84.27;51.87;;;;;;;1.46;100.00;102372.06;5093156;28;20023;-64
2022/01/16 08:23:20;;;;;;;74.83;50.63;;;;;;;1.48;100.00;102360.31;5095866;28;20027;-64
2022/01/16 08:25:45;;;;;;;75.20;48.60;;;;;;;1.50;100.00;102369.94;5109294;28;20028;-65
2022/01/16 08:28:10;;;;;;;75.37;48.57;;;;;;;1.51;100.00;102358.06;5109665;28;20094;-64
2022/01/16 08:30:36;;;;;;;82.27;52.00;;;;;;;1.53;100.00;102361.66;5109050;28;20035;-65
2022/01/16 08:33:01;;;;;;;81.97;50.47;;;;;;;1.56;100.00;102359.38;5109601;28;20031;-64
2022/01/16 08:35:27;;;;;;;76.43;50.30;;;;;;;1.58;100.00;102362.09;5109435;28;20102;-65
2022/01/16 08:37:52;;;;;;;80.13;48.83;;;;;;;1.60;100.00;102361.44;5109442;28;20068;-63
2022/01/16 08:40:18;;;;;;;80.23;50.40;;;;;;;1.59;100.00;102359.66;5107039;28;20023;-65
2022/01/16 08:42:43;;;;;;;78.17;49.97;;;;;;;1.65;100.00;102360.25;5089886;28;20028;-62
2022/01/16 08:45:09;;;;;;;76.63;49.63;;;;;;;1.67;100.00;102368.94;5089863;28;20035;-64
2022/01/16 08:47:35;;;;;;;75.27;48.47;;;;;;;1.68;100.00;102357.97;5089721;28;20395;-65
2022/01/16 08:50:02;;;;;;;83.63;50.60;;;;;;;1.72;100.00;102364.25;5094545;28;20031;-64
2022/01/16 08:52:28;;;;;;;83.00;50.33;;;;;;;1.73;100.00;102357.47;5093140;28;20062;-65
2022/01/16 08:54:53;;;;;;;85.00;50.20;;;;;;;1.76;100.00;102368.88;5100286;28;20456;-64
2022/01/16 08:57:19;;;;;;;83.77;49.13;;;;;;;1.78;100.00;102372.47;5108947;28;20026;-65
2022/01/16 08:59:44;;;;;;;79.67;49.53;;;;;;;1.80;100.00;102381.19;5109047;28;20030;-65
2022/01/16 09:02:10;;;;;;;75.33;47.13;;;;;;;1.82;100.00;102394.13;5108961;28;20102;-65
2022/01/16 09:04:35;;;;;;;77.87;47.23;;;;;;;1.84;100.00;102390.06;5108294;28;20028;-63
2022/01/16 09:07:00;;;;;;;85.37;48.83;;;;;;;1.86;100.00;102391.09;5103823;28;20259;-63
2022/01/16 09:09:26;;;;;;;84.07;49.93;;;;;;;1.86;100.00;102393.66;5106424;28;20391;-64
2022/01/16 09:11:51;;;;;;;78.87;48.80;;;;;;;1.89;100.00;102399.06;5089127;28;20042;-63
2022/01/16 09:14:17;;;;;;;83.60;48.47;;;;;;;1.92;100.00;102399.31;5094058;28;20031;-63
2022/01/16 09:16:42;;;;;;;84.37;51.27;;;;;;;1.92;100.00;102401.88;5093856;28;20031;-63
2022/01/16 09:19:08;;;;;;;83.20;49.43;;;;;;;1.95;100.00;102401.28;5097920;28;20031;-63
2022/01/16 09:21:34;;;;;;;86.13;49.73;;;;;;;1.98;100.00;102413.47;5104360;27;20023;-63
2022/01/16 09:23:59;;;;;;;79.30;49.33;;;;;;;2.00;100.00;102414.47;5113504;28;20077;-64
2022/01/16 09:26:26;;;;;;;89.53;51.43;;;;;;;2.01;100.00;102412.09;5113145;28;20417;-63
2022/01/16 09:28:51;;;;;;;84.73;50.50;;;;;;;2.05;100.00;102418.38;5113547;28;20058;-63
2022/01/16 09:31:16;;;;;;;82.20;50.80;;;;;;;2.09;100.00;102414.44;5113459;28;20051;-63
2022/01/16 09:33:42;;;;;;;92.87;51.40;;;;;;;2.12;100.00;102420.72;5113139;28;20478;-64
2022/01/16 09:36:09;;;;;;;93.27;53.43;;;;;;;2.15;100.00;102428.69;5113590;28;20035;-64
2022/01/16 09:38:35;;;;;;;91.47;52.77;;;;;;;2.18;100.00;102425.50;5086481;28;20542;-63
2022/01/16 09:41:01;;;;;;;91.10;50.90;;;;;;;2.22;100.00;102431.81;5093112;28;20150;-63
2022/01/16 09:43:26;;;;;;;98.97;55.50;;;;;;;2.23;100.00;102433.63;5092662;28;20493;-63
2022/01/16 09:45:53;;;;;;;96.47;56.10;;;;;;;2.25;100.00;102444.88;5093272;28;20055;-63
2022/01/16 09:48:19;;;;;;;99.00;54.67;;;;;;;2.26;100.00;102433.91;5100682;28;20034;-63
2022/01/16 09:50:44;;;;;;;101.77;55.07;;;;;;;2.30;100.00;102446.22;5112272;28;20032;-63
2022/01/16 09:53:10;;;;;;;99.37;56.70;;;;;;;2.29;100.00;102441.84;5112670;28;20032;-64
2022/01/16 09:55:35;;;;;;;107.73;56.87;;;;;;;2.32;100.00;102439.56;5113183;28;20568;-63
2022/01/16 09:58:01;;;;;;;117.33;58.77;;;;;;;2.31;100.00;102448.00;5112710;28;20036;-64
2022/01/16 10:00:27;;;;;;;110.73;59.00;;;;;;;2.33;100.00;102449.06;5112953;28;20039;-63
2022/01/16 10:02:53;;;;;;;113.33;58.30;;;;;;;2.34;100.00;102458.50;5112844;28;20035;-64
2022/01/16 10:05:22;;;;;;;110.03;56.97;;;;;;;2.36;100.00;102461.22;5112771;28;20038;-63
2022/01/16 10:07:48;;;;;;;117.47;59.73;;;;;;;2.38;100.00;102465.72;5112110;28;20487;-63
2022/01/16 10:10:14;;;;;;;118.00;58.63;;;;;;;2.40;100.00;102464.22;5112851;28;20031;-63
2022/01/16 10:12:51;;;;;;;117.43;57.33;;;;;;;2.43;100.00;102478.06;5112623;28;20312;-63
2022/01/16 10:15:22;;;;;;;123.77;60.30;;;;;;;2.44;100.00;102474.72;5112502;28;20019;-63
2022/01/16 10:17:51;;;;;;;122.45;57.28;;;;;;;2.45;100.00;102477.41;5112452;28;20095;-63
2022/01/16 10:20:16;;;;;;;124.33;60.50;;;;;;;2.46;100.00;102474.13;5112491;28;20431;-64
2022/01/16 10:22:48;;;;;;;124.87;59.93;;;;;;;2.48;100.00;102481.94;5092106;28;20067;-64
2022/01/16 10:25:16;;;;;;;118.17;60.67;;;;;;;2.49;100.00;102493.97;5092026;28;20050;-64
2022/01/16 10:27:44;;;;;;;113.70;56.60;;;;;;;2.51;100.00;102488.22;5091679;28;20131;-64
2022/01/16 10:30:13;;;;;;;123.33;57.70;;;;;;;2.55;100.00;102494.53;5092100;28;20468;-64
2022/01/16 10:32:42;;;;;;;113.60;54.90;;;;;;;2.58;100.00;102487.13;5111032;28;20023;-63
2022/01/16 10:35:20;;;;;;;116.00;54.90;;;;;;;2.62;100.00;102486.66;5112075;28;20096;-63
2022/01/16 10:37:47;;;;;;;116.93;53.60;;;;;;;2.66;100.00;102482.72;5112454;28;20028;-64
2022/01/16 10:40:33;;;;;;;113.13;55.93;;;;;;;2.71;100.00;102480.56;5111868;28;20032;-64
2022/01/16 10:43:04;;;;;;;118.03;55.20;;;;;;;2.73;100.00;102491.84;5093594;28;20043;-64
2022/01/16 10:45:30;;;;;;;108.35;52.70;;;;;;;2.74;100.00;102496.19;5111146;28;20038;-64
2022/01/16 10:47:58;;;;;;;110.93;53.50;;;;;;;2.75;100.00;102503.13;5098546;28;20031;-63
2022/01/16 10:50:34;;;;;;;107.33;53.27;;;;;;;2.79;100.00;102501.75;5111896;28;20023;-64
2022/01/16 10:52:59;;;;;;;103.23;51.70;;;;;;;2.83;100.00;102491.91;5112097;28;20043;-64
2022/01/16 10:55:49;;;;;;;102.07;51.10;;;;;;;2.85;100.00;102485.28;5111926;28;20498;-63
2022/01/16 10:58:14;;;;;;;95.73;48.47;;;;;;;2.91;100.00;102496.81;5111786;28;20023;-63
2022/01/16 11:00:54;;;;;;;112.30;52.20;;;;;;;2.97;100.00;102494.81;5111950;28;20102;-63
2022/01/16 11:03:21;;;;;;;99.70;47.37;;;;;;;3.03;100.00;102492.81;5112077;28;20107;-62
2022/01/16 11:05:49;;;;;;;91.90;49.37;;;;;;;3.05;100.00;102493.84;5110734;28;20075;-63
2022/01/16 11:08:23;;;;;;;93.77;47.80;;;;;;;3.08;100.00;102494.09;5093169;28;20030;-63
2022/01/16 11:10:55;;;;;;;99.77;49.53;;;;;;;3.11;100.00;102499.50;5111873;28;20379;-63
2022/01/16 11:13:29;;;;;;;92.53;48.77;;;;;;;3.14;100.00;102492.84;5111379;28;20552;-63
2022/01/16 11:15:56;;;;;;;90.60;44.83;;;;;;;3.15;100.00;102498.09;5111730;28;20016;-63
2022/01/16 11:18:24;;;;;;;80.70;43.13;;;;;;;3.15;100.00;102493.00;5111285;28;20054;-64
2022/01/16 11:20:57;;;;;;;87.07;46.20;;;;;;;3.18;100.00;102497.50;5111378;28;20034;-63
2022/01/16 11:25:56;;;;;;;89.23;45.67;;;;;;;3.15;100.00;102497.22;5111605;28;20051;-63
2022/01/16 11:28:23;;;;;;;88.57;45.37;;;;;;;3.12;100.00;102496.19;5109935;28;20375;-64
2022/01/16 11:30:51;;;;;;;90.43;46.47;;;;;;;3.11;100.00;102491.81;5111231;28;20019;-63
2022/01/16 11:33:18;;;;;;;97.70;46.50;;;;;;;3.12;100.00;102501.31;5110566;28;20383;-63
2022/01/16 11:35:45;;;;;;;86.70;46.73;;;;;;;3.14;100.00;102508.22;5110024;28;20106;-64
2022/01/16 11:38:11;;;;;;;85.47;45.10;;;;;;;3.16;100.00;102506.72;5111167;28;20088;-64
2022/01/16 11:40:42;;;;;;;83.80;46.23;;;;;;;3.16;100.00;102501.59;5110979;28;20022;-63
2022/01/16 11:43:15;;;;;;;94.10;46.83;;;;;;;3.15;100.00;102494.69;5092414;28;20043;-64
2022/01/16 11:45:52;;;;;;;92.60;46.40;;;;;;;3.15;100.00;102494.69;5110861;28;20074;-64
2022/01/16 11:48:34;;;;;;;89.83;47.60;;;;;;;3.10;100.00;102502.84;5110908;28;20080;-64
2022/01/16 11:51:00;;;;;;;94.97;48.00;;;;;;;3.11;100.00;102498.63;5110649;28;20028;-63
2022/01/16 11:54:06;;;;;;;92.40;49.17;;;;;;;3.06;100.00;102494.75;5110857;28;20073;-63